sensor_id;sensor_type;location;lat;lon;timestamp;temperature;humidity
19665;DHT22;9980;51.020;7.772;2024-01-11T00:01:46;-3.70;98.20
19665;DHT22;9980;51.020;7.772;2024-01-11T00:04:13;-3.70;98.30
19665;DHT22;9980;51.020;7.772;2024-01-11T00:06:44;-3.70;98.30
19665;DHT22;9980;51.020;7.772;2024-01-11T00:09:12;-3.80;98.30
19665;DHT22;9980;51.020;7.772;2024-01-11T00:11:38;-3.80;98.30
19665;DHT22;9980;51.020;7.772;2024-01-11T00:14:06;-3.80;98.30
19665;DHT22;9980;51.020;7.772;2024-01-11T00:16:33;-3.80;98.30
19665;DHT22;9980;51.020;7.772;2024-01-11T00:19:00;-3.80;98.40
19665;DHT22;9980;51.020;7.772;2024-01-11T00:21:27;-3.80;98.50
19665;DHT22;9980;51.020;7.772;2024-01-11T00:23:54;-3.90;98.60
19665;DHT22;9980;51.020;7.772;2024-01-11T00:26:21;-3.90;98.70
19665;DHT22;9980;51.020;7.772;2024-01-11T00:28:48;-3.90;98.70
19665;DHT22;9980;51.020;7.772;2024-01-11T00:31:15;-3.90;98.60
19665;DHT22;9980;51.020;7.772;2024-01-11T00:33:42;-3.90;98.50
19665;DHT22;9980;51.020;7.772;2024-01-11T00:36:09;-3.90;98.50
19665;DHT22;9980;51.020;7.772;2024-01-11T00:38:36;-3.90;98.50
19665;DHT22;9980;51.020;7.772;2024-01-11T00:41:03;-3.90;98.50
19665;DHT22;9980;51.020;7.772;2024-01-11T00:43:30;-4.00;98.50
19665;DHT22;9980;51.020;7.772;2024-01-11T00:45:57;-4.00;98.50
19665;DHT22;9980;51.020;7.772;2024-01-11T00:48:24;-4.00;98.50
19665;DHT22;9980;51.020;7.772;2024-01-11T00:50:51;-4.00;98.50
19665;DHT22;9980;51.020;7.772;2024-01-11T00:53:18;-4.00;98.50
19665;DHT22;9980;51.020;7.772;2024-01-11T00:55:45;-4.00;98.50
19665;DHT22;9980;51.020;7.772;2024-01-11T00:58:12;-4.00;98.40
19665;DHT22;9980;51.020;7.772;2024-01-11T01:00:39;-4.10;98.40
19665;DHT22;9980;51.020;7.772;2024-01-11T01:03:06;-4.10;98.50
19665;DHT22;9980;51.020;7.772;2024-01-11T01:05:33;-4.10;98.50
19665;DHT22;9980;51.020;7.772;2024-01-11T01:08:00;-4.10;98.40
19665;DHT22;9980;51.020;7.772;2024-01-11T01:10:27;-4.10;98.50
19665;DHT22;9980;51.020;7.772;2024-01-11T01:12:55;-4.10;98.50
19665;DHT22;9980;51.020;7.772;2024-01-11T01:15:22;-4.10;98.40
19665;DHT22;9980;51.020;7.772;2024-01-11T01:17:48;-4.20;98.40
19665;DHT22;9980;51.020;7.772;2024-01-11T01:20:16;-4.20;98.40
19665;DHT22;9980;51.020;7.772;2024-01-11T01:22:43;-4.20;98.40
19665;DHT22;9980;51.020;7.772;2024-01-11T01:25:10;-4.20;98.40
19665;DHT22;9980;51.020;7.772;2024-01-11T01:27:37;-4.20;98.50
19665;DHT22;9980;51.020;7.772;2024-01-11T01:30:04;-4.20;98.40
19665;DHT22;9980;51.020;7.772;2024-01-11T01:32:32;-4.20;98.40
19665;DHT22;9980;51.020;7.772;2024-01-11T01:34:59;-4.30;98.40
19665;DHT22;9980;51.020;7.772;2024-01-11T01:37:26;-4.30;98.40
19665;DHT22;9980;51.020;7.772;2024-01-11T01:39:53;-4.30;98.30
19665;DHT22;9980;51.020;7.772;2024-01-11T01:42:20;-4.30;98.10
19665;DHT22;9980;51.020;7.772;2024-01-11T01:44:47;-4.30;98.10
19665;DHT22;9980;51.020;7.772;2024-01-11T01:47:14;-4.30;98.20
19665;DHT22;9980;51.020;7.772;2024-01-11T01:49:43;-4.40;98.20
19665;DHT22;9980;51.020;7.772;2024-01-11T01:52:11;-4.40;98.30
19665;DHT22;9980;51.020;7.772;2024-01-11T01:54:40;-4.40;98.30
19665;DHT22;9980;51.020;7.772;2024-01-11T01:57:10;-4.40;98.30
19665;DHT22;9980;51.020;7.772;2024-01-11T01:59:39;-4.40;98.20
19665;DHT22;9980;51.020;7.772;2024-01-11T02:02:07;-4.40;98.20
19665;DHT22;9980;51.020;7.772;2024-01-11T02:04:35;-4.40;98.30
19665;DHT22;9980;51.020;7.772;2024-01-11T02:07:02;-4.50;98.40
19665;DHT22;9980;51.020;7.772;2024-01-11T02:09:31;-4.50;98.30
19665;DHT22;9980;51.020;7.772;2024-01-11T02:11:58;-4.50;98.30
19665;DHT22;9980;51.020;7.772;2024-01-11T02:14:25;-4.50;98.30
19665;DHT22;9980;51.020;7.772;2024-01-11T02:16:53;-4.50;98.40
19665;DHT22;9980;51.020;7.772;2024-01-11T02:19:20;-4.50;98.40
19665;DHT22;9980;51.020;7.772;2024-01-11T02:21:49;-4.50;98.30
19665;DHT22;9980;51.020;7.772;2024-01-11T02:24:19;-4.50;98.30
19665;DHT22;9980;51.020;7.772;2024-01-11T02:27:01;-4.60;98.30
19665;DHT22;9980;51.020;7.772;2024-01-11T02:29:30;-4.60;98.30
19665;DHT22;9980;51.020;7.772;2024-01-11T02:31:59;-4.60;98.30
19665;DHT22;9980;51.020;7.772;2024-01-11T02:34:28;-4.60;98.40
19665;DHT22;9980;51.020;7.772;2024-01-11T02:36:56;-4.60;98.40
19665;DHT22;9980;51.020;7.772;2024-01-11T02:39:24;-4.60;98.40
19665;DHT22;9980;51.020;7.772;2024-01-11T02:41:55;-4.70;98.30
19665;DHT22;9980;51.020;7.772;2024-01-11T02:44:24;-4.70;98.60
19665;DHT22;9980;51.020;7.772;2024-01-11T02:46:51;-4.70;98.20
19665;DHT22;9980;51.020;7.772;2024-01-11T02:49:18;-4.70;98.20
19665;DHT22;9980;51.020;7.772;2024-01-11T02:51:46;-4.70;98.20
19665;DHT22;9980;51.020;7.772;2024-01-11T02:54:12;-4.70;98.20
19665;DHT22;9980;51.020;7.772;2024-01-11T02:56:39;-4.70;98.30
19665;DHT22;9980;51.020;7.772;2024-01-11T02:59:06;-4.70;98.30
19665;DHT22;9980;51.020;7.772;2024-01-11T03:01:33;-4.80;98.30
19665;DHT22;9980;51.020;7.772;2024-01-11T03:04:00;-4.80;98.30
19665;DHT22;9980;51.020;7.772;2024-01-11T03:06:28;-4.80;98.30
19665;DHT22;9980;51.020;7.772;2024-01-11T03:08:55;-4.80;98.30
19665;DHT22;9980;51.020;7.772;2024-01-11T03:11:22;-4.80;98.40
19665;DHT22;9980;51.020;7.772;2024-01-11T03:13:49;-4.80;98.40
19665;DHT22;9980;51.020;7.772;2024-01-11T03:16:16;-4.80;98.40
19665;DHT22;9980;51.020;7.772;2024-01-11T03:18:43;-4.90;98.40
19665;DHT22;9980;51.020;7.772;2024-01-11T03:21:10;-4.90;98.30
19665;DHT22;9980;51.020;7.772;2024-01-11T03:23:37;-4.90;98.40
19665;DHT22;9980;51.020;7.772;2024-01-11T03:26:04;-4.90;98.40
19665;DHT22;9980;51.020;7.772;2024-01-11T03:28:39;-4.90;98.40
19665;DHT22;9980;51.020;7.772;2024-01-11T03:31:08;-4.90;98.30
19665;DHT22;9980;51.020;7.772;2024-01-11T03:33:36;-4.90;98.30
19665;DHT22;9980;51.020;7.772;2024-01-11T03:36:10;-5.00;98.30
19665;DHT22;9980;51.020;7.772;2024-01-11T03:38:37;-5.00;98.30
19665;DHT22;9980;51.020;7.772;2024-01-11T03:41:09;-5.00;98.30
19665;DHT22;9980;51.020;7.772;2024-01-11T03:43:37;-5.00;98.30
19665;DHT22;9980;51.020;7.772;2024-01-11T03:46:04;-5.00;98.30
19665;DHT22;9980;51.020;7.772;2024-01-11T03:48:31;-5.00;98.30
19665;DHT22;9980;51.020;7.772;2024-01-11T03:50:58;-5.00;98.30
19665;DHT22;9980;51.020;7.772;2024-01-11T03:53:25;-5.10;98.20
19665;DHT22;9980;51.020;7.772;2024-01-11T03:55:52;-5.10;98.20
19665;DHT22;9980;51.020;7.772;2024-01-11T03:58:19;-5.10;98.20
19665;DHT22;9980;51.020;7.772;2024-01-11T04:00:46;-5.10;98.20
19665;DHT22;9980;51.020;7.772;2024-01-11T04:03:13;-5.10;98.30
19665;DHT22;9980;51.020;7.772;2024-01-11T04:05:40;-5.10;98.40
19665;DHT22;9980;51.020;7.772;2024-01-11T04:08:08;-5.10;98.40
19665;DHT22;9980;51.020;7.772;2024-01-11T04:10:35;-5.20;98.40
19665;DHT22;9980;51.020;7.772;2024-01-11T04:13:01;-5.10;98.50
19665;DHT22;9980;51.020;7.772;2024-01-11T04:15:28;-5.20;98.40
19665;DHT22;9980;51.020;7.772;2024-01-11T04:17:55;-5.20;98.40
19665;DHT22;9980;51.020;7.772;2024-01-11T04:20:22;-5.20;98.40
19665;DHT22;9980;51.020;7.772;2024-01-11T04:22:51;-5.20;98.40
19665;DHT22;9980;51.020;7.772;2024-01-11T04:25:18;-5.20;98.40
19665;DHT22;9980;51.020;7.772;2024-01-11T04:27:45;-5.20;98.40
19665;DHT22;9980;51.020;7.772;2024-01-11T04:30:12;-5.30;98.40
19665;DHT22;9980;51.020;7.772;2024-01-11T04:32:39;-5.30;98.40
19665;DHT22;9980;51.020;7.772;2024-01-11T04:35:06;-5.30;98.40
19665;DHT22;9980;51.020;7.772;2024-01-11T04:37:33;-5.30;98.40
19665;DHT22;9980;51.020;7.772;2024-01-11T04:40:02;-5.30;98.40
19665;DHT22;9980;51.020;7.772;2024-01-11T04:42:30;-5.30;98.30
19665;DHT22;9980;51.020;7.772;2024-01-11T04:44:57;-5.30;98.40
19665;DHT22;9980;51.020;7.772;2024-01-11T04:47:23;-5.40;98.50
19665;DHT22;9980;51.020;7.772;2024-01-11T04:49:50;-5.40;98.50
19665;DHT22;9980;51.020;7.772;2024-01-11T04:52:17;-5.40;98.50
19665;DHT22;9980;51.020;7.772;2024-01-11T04:54:44;-5.40;98.40
19665;DHT22;9980;51.020;7.772;2024-01-11T04:57:11;-5.40;98.40
19665;DHT22;9980;51.020;7.772;2024-01-11T04:59:38;-5.40;98.40
19665;DHT22;9980;51.020;7.772;2024-01-11T05:02:05;-5.40;98.40
19665;DHT22;9980;51.020;7.772;2024-01-11T05:04:32;-5.50;98.30
19665;DHT22;9980;51.020;7.772;2024-01-11T05:06:59;-5.50;98.30
19665;DHT22;9980;51.020;7.772;2024-01-11T05:09:26;-5.50;98.30
19665;DHT22;9980;51.020;7.772;2024-01-11T05:11:53;-5.50;98.30
19665;DHT22;9980;51.020;7.772;2024-01-11T05:14:20;-5.50;98.30
19665;DHT22;9980;51.020;7.772;2024-01-11T05:16:47;-5.60;98.30
19665;DHT22;9980;51.020;7.772;2024-01-11T05:19:14;-5.50;98.30
19665;DHT22;9980;51.020;7.772;2024-01-11T05:21:40;-5.60;98.30
19665;DHT22;9980;51.020;7.772;2024-01-11T05:24:07;-5.60;98.30
19665;DHT22;9980;51.020;7.772;2024-01-11T05:26:37;-5.60;98.20
19665;DHT22;9980;51.020;7.772;2024-01-11T05:29:04;-5.60;98.20
19665;DHT22;9980;51.020;7.772;2024-01-11T05:31:31;-5.60;98.20
19665;DHT22;9980;51.020;7.772;2024-01-11T05:33:59;-5.60;98.20
19665;DHT22;9980;51.020;7.772;2024-01-11T05:36:26;-5.60;98.20
19665;DHT22;9980;51.020;7.772;2024-01-11T05:38:53;-5.70;98.10
19665;DHT22;9980;51.020;7.772;2024-01-11T05:41:20;-5.70;98.10
19665;DHT22;9980;51.020;7.772;2024-01-11T05:43:47;-5.70;98.10
19665;DHT22;9980;51.020;7.772;2024-01-11T05:46:14;-5.70;98.20
19665;DHT22;9980;51.020;7.772;2024-01-11T05:48:41;-5.70;98.30
19665;DHT22;9980;51.020;7.772;2024-01-11T05:51:09;-5.80;98.20
19665;DHT22;9980;51.020;7.772;2024-01-11T05:53:36;-5.80;98.30
19665;DHT22;9980;51.020;7.772;2024-01-11T05:56:10;-5.80;98.20
19665;DHT22;9980;51.020;7.772;2024-01-11T05:58:38;-5.80;98.20
19665;DHT22;9980;51.020;7.772;2024-01-11T06:01:06;-5.80;98.20
19665;DHT22;9980;51.020;7.772;2024-01-11T06:03:33;-5.80;98.30
19665;DHT22;9980;51.020;7.772;2024-01-11T06:06:02;-5.90;98.30
19665;DHT22;9980;51.020;7.772;2024-01-11T06:08:30;-5.90;98.30
19665;DHT22;9980;51.020;7.772;2024-01-11T06:10:58;-5.90;98.40
19665;DHT22;9980;51.020;7.772;2024-01-11T06:13:25;-5.90;98.40
19665;DHT22;9980;51.020;7.772;2024-01-11T06:15:52;-5.90;98.50
19665;DHT22;9980;51.020;7.772;2024-01-11T06:18:20;-5.90;98.50
19665;DHT22;9980;51.020;7.772;2024-01-11T06:20:47;-6.00;98.50
19665;DHT22;9980;51.020;7.772;2024-01-11T06:23:14;-6.00;98.60
19665;DHT22;9980;51.020;7.772;2024-01-11T06:25:43;-5.90;98.70
19665;DHT22;9980;51.020;7.772;2024-01-11T06:28:10;-5.90;98.70
19665;DHT22;9980;51.020;7.772;2024-01-11T06:30:37;-6.00;98.80
19665;DHT22;9980;51.020;7.772;2024-01-11T06:33:04;-6.00;98.90
19665;DHT22;9980;51.020;7.772;2024-01-11T06:35:31;-6.00;99.00
19665;DHT22;9980;51.020;7.772;2024-01-11T06:37:58;-6.00;99.10
19665;DHT22;9980;51.020;7.772;2024-01-11T06:40:25;-6.00;99.20
19665;DHT22;9980;51.020;7.772;2024-01-11T06:42:52;-6.00;99.30
19665;DHT22;9980;51.020;7.772;2024-01-11T06:45:19;-6.00;99.20
19665;DHT22;9980;51.020;7.772;2024-01-11T06:47:46;-6.00;99.10
19665;DHT22;9980;51.020;7.772;2024-01-11T06:50:14;-6.00;99.10
19665;DHT22;9980;51.020;7.772;2024-01-11T06:52:41;-6.00;99.00
19665;DHT22;9980;51.020;7.772;2024-01-11T06:55:08;-6.00;99.00
19665;DHT22;9980;51.020;7.772;2024-01-11T06:57:35;-6.00;99.00
19665;DHT22;9980;51.020;7.772;2024-01-11T07:00:02;-6.00;99.00
19665;DHT22;9980;51.020;7.772;2024-01-11T07:02:30;-6.00;99.10
19665;DHT22;9980;51.020;7.772;2024-01-11T07:04:57;-6.10;98.90
19665;DHT22;9980;51.020;7.772;2024-01-11T07:07:24;-6.10;98.90
19665;DHT22;9980;51.020;7.772;2024-01-11T07:09:53;-6.10;98.90
19665;DHT22;9980;51.020;7.772;2024-01-11T07:12:22;-6.10;98.80
19665;DHT22;9980;51.020;7.772;2024-01-11T07:14:49;-6.10;98.70
19665;DHT22;9980;51.020;7.772;2024-01-11T07:17:16;-6.10;98.70
19665;DHT22;9980;51.020;7.772;2024-01-11T07:19:43;-6.10;98.70
19665;DHT22;9980;51.020;7.772;2024-01-11T07:22:10;-6.10;98.70
19665;DHT22;9980;51.020;7.772;2024-01-11T07:24:37;-6.10;98.70
19665;DHT22;9980;51.020;7.772;2024-01-11T07:27:05;-6.20;98.60
19665;DHT22;9980;51.020;7.772;2024-01-11T07:29:33;-6.20;98.60
19665;DHT22;9980;51.020;7.772;2024-01-11T07:32:00;-6.20;98.50
19665;DHT22;9980;51.020;7.772;2024-01-11T07:34:27;-6.20;98.50
19665;DHT22;9980;51.020;7.772;2024-01-11T07:36:55;-6.20;98.50
19665;DHT22;9980;51.020;7.772;2024-01-11T07:39:23;-6.20;98.60
19665;DHT22;9980;51.020;7.772;2024-01-11T07:41:51;-6.20;98.60
19665;DHT22;9980;51.020;7.772;2024-01-11T07:44:18;-6.20;98.70
19665;DHT22;9980;51.020;7.772;2024-01-11T07:46:45;-6.20;98.70
19665;DHT22;9980;51.020;7.772;2024-01-11T07:49:20;-6.20;98.80
19665;DHT22;9980;51.020;7.772;2024-01-11T07:51:47;-6.20;98.90
19665;DHT22;9980;51.020;7.772;2024-01-11T07:54:14;-6.20;99.00
19665;DHT22;9980;51.020;7.772;2024-01-11T07:56:42;-6.20;99.00
19665;DHT22;9980;51.020;7.772;2024-01-11T07:59:09;-6.20;99.10
19665;DHT22;9980;51.020;7.772;2024-01-11T08:01:41;-6.20;99.10
19665;DHT22;9980;51.020;7.772;2024-01-11T08:04:08;-6.20;99.20
19665;DHT22;9980;51.020;7.772;2024-01-11T08:06:35;-6.20;99.30
19665;DHT22;9980;51.020;7.772;2024-01-11T08:09:02;-6.10;99.50
19665;DHT22;9980;51.020;7.772;2024-01-11T08:11:31;-6.10;99.50
19665;DHT22;9980;51.020;7.772;2024-01-11T08:14:02;-6.10;99.60
19665;DHT22;9980;51.020;7.772;2024-01-11T08:16:32;-6.10;99.60
19665;DHT22;9980;51.020;7.772;2024-01-11T08:18:59;-6.10;99.70
19665;DHT22;9980;51.020;7.772;2024-01-11T08:21:27;-6.00;99.90
19665;DHT22;9980;51.020;7.772;2024-01-11T08:23:55;-6.00;99.80
19665;DHT22;9980;51.020;7.772;2024-01-11T08:26:28;-6.00;99.90
19665;DHT22;9980;51.020;7.772;2024-01-11T08:28:56;-6.00;99.90
19665;DHT22;9980;51.020;7.772;2024-01-11T08:31:24;-5.90;99.90
19665;DHT22;9980;51.020;7.772;2024-01-11T08:33:51;-5.90;99.90
19665;DHT22;9980;51.020;7.772;2024-01-11T08:36:18;-5.90;99.90
19665;DHT22;9980;51.020;7.772;2024-01-11T08:38:45;-5.80;99.90
19665;DHT22;9980;51.020;7.772;2024-01-11T08:41:12;-5.80;99.90
19665;DHT22;9980;51.020;7.772;2024-01-11T08:43:39;-5.80;99.90
19665;DHT22;9980;51.020;7.772;2024-01-11T08:46:06;-5.70;99.90
19665;DHT22;9980;51.020;7.772;2024-01-11T08:48:33;-5.70;99.90
19665;DHT22;9980;51.020;7.772;2024-01-11T08:51:00;-5.60;99.90
19665;DHT22;9980;51.020;7.772;2024-01-11T08:53:28;-5.60;99.90
19665;DHT22;9980;51.020;7.772;2024-01-11T08:55:54;-5.50;99.90
19665;DHT22;9980;51.020;7.772;2024-01-11T08:58:21;-5.50;99.90
19665;DHT22;9980;51.020;7.772;2024-01-11T09:00:48;-5.50;99.90
19665;DHT22;9980;51.020;7.772;2024-01-11T09:03:15;-5.40;99.90
19665;DHT22;9980;51.020;7.772;2024-01-11T09:05:44;-5.40;99.90
19665;DHT22;9980;51.020;7.772;2024-01-11T09:08:11;-5.30;99.90
19665;DHT22;9980;51.020;7.772;2024-01-11T09:10:38;-5.30;99.90
19665;DHT22;9980;51.020;7.772;2024-01-11T09:13:05;-5.20;99.90
19665;DHT22;9980;51.020;7.772;2024-01-11T09:15:31;-5.20;99.90
19665;DHT22;9980;51.020;7.772;2024-01-11T09:17:59;-5.10;99.90
19665;DHT22;9980;51.020;7.772;2024-01-11T09:20:29;-5.10;99.90
19665;DHT22;9980;51.020;7.772;2024-01-11T09:22:57;-5.00;99.90
19665;DHT22;9980;51.020;7.772;2024-01-11T09:25:24;-4.90;99.90
19665;DHT22;9980;51.020;7.772;2024-01-11T09:27:51;-4.80;99.90
19665;DHT22;9980;51.020;7.772;2024-01-11T09:30:18;-4.80;99.90
19665;DHT22;9980;51.020;7.772;2024-01-11T09:32:45;-4.70;99.90
19665;DHT22;9980;51.020;7.772;2024-01-11T09:35:13;-4.60;99.90
19665;DHT22;9980;51.020;7.772;2024-01-11T09:37:42;-4.50;99.90
19665;DHT22;9980;51.020;7.772;2024-01-11T09:40:12;-4.40;99.90
19665;DHT22;9980;51.020;7.772;2024-01-11T09:42:39;-4.30;99.90
19665;DHT22;9980;51.020;7.772;2024-01-11T09:45:13;-4.20;99.90
19665;DHT22;9980;51.020;7.772;2024-01-11T09:47:45;-4.10;99.90
19665;DHT22;9980;51.020;7.772;2024-01-11T09:50:15;-4.00;99.90
19665;DHT22;9980;51.020;7.772;2024-01-11T09:52:46;-3.90;99.90
19665;DHT22;9980;51.020;7.772;2024-01-11T09:55:17;-3.80;99.90
19665;DHT22;9980;51.020;7.772;2024-01-11T09:57:46;-3.70;99.90
19665;DHT22;9980;51.020;7.772;2024-01-11T10:00:18;-3.60;99.90
19665;DHT22;9980;51.020;7.772;2024-01-11T10:02:48;-3.50;99.90
19665;DHT22;9980;51.020;7.772;2024-01-11T10:05:18;-3.40;99.90
19665;DHT22;9980;51.020;7.772;2024-01-11T10:07:46;-3.30;99.90
19665;DHT22;9980;51.020;7.772;2024-01-11T10:10:12;-3.10;99.90
19665;DHT22;9980;51.020;7.772;2024-01-11T10:12:42;-3.00;99.90
19665;DHT22;9980;51.020;7.772;2024-01-11T10:15:10;-2.90;99.90
19665;DHT22;9980;51.020;7.772;2024-01-11T10:17:44;-2.80;99.90
19665;DHT22;9980;51.020;7.772;2024-01-11T10:20:13;-2.60;99.90
19665;DHT22;9980;51.020;7.772;2024-01-11T10:22:42;-2.50;99.90
19665;DHT22;9980;51.020;7.772;2024-01-11T10:25:15;-2.40;99.90
19665;DHT22;9980;51.020;7.772;2024-01-11T10:27:44;-2.30;99.90
19665;DHT22;9980;51.020;7.772;2024-01-11T10:30:13;-2.10;99.90
19665;DHT22;9980;51.020;7.772;2024-01-11T10:32:47;-2.00;99.90
19665;DHT22;9980;51.020;7.772;2024-01-11T10:35:15;-1.80;99.90
19665;DHT22;9980;51.020;7.772;2024-01-11T10:37:44;-1.70;99.90
19665;DHT22;9980;51.020;7.772;2024-01-11T10:40:12;-1.50;99.90
19665;DHT22;9980;51.020;7.772;2024-01-11T10:42:43;-1.40;99.90
19665;DHT22;9980;51.020;7.772;2024-01-11T10:45:16;-1.30;99.90
19665;DHT22;9980;51.020;7.772;2024-01-11T10:47:55;-1.10;99.90
19665;DHT22;9980;51.020;7.772;2024-01-11T10:50:36;-1.00;99.90
19665;DHT22;9980;51.020;7.772;2024-01-11T10:56:10;-0.60;99.90
19665;DHT22;9980;51.020;7.772;2024-01-11T10:58:43;-0.50;99.90
19665;DHT22;9980;51.020;7.772;2024-01-11T11:01:12;-0.30;99.90
19665;DHT22;9980;51.020;7.772;2024-01-11T11:03:41;-0.20;99.90
19665;DHT22;9980;51.020;7.772;2024-01-11T11:06:11;0.00;99.90
19665;DHT22;9980;51.020;7.772;2024-01-11T11:08:40;0.10;99.90
19665;DHT22;9980;51.020;7.772;2024-01-11T11:11:08;0.30;99.90
19665;DHT22;9980;51.020;7.772;2024-01-11T11:13:36;0.40;99.90
19665;DHT22;9980;51.020;7.772;2024-01-11T11:16:04;0.50;99.90
19665;DHT22;9980;51.020;7.772;2024-01-11T11:18:32;0.70;99.90
19665;DHT22;9980;51.020;7.772;2024-01-11T11:21:09;0.80;99.90
19665;DHT22;9980;51.020;7.772;2024-01-11T11:23:38;0.90;99.90
19665;DHT22;9980;51.020;7.772;2024-01-11T11:26:06;1.10;99.90
19665;DHT22;9980;51.020;7.772;2024-01-11T11:28:35;1.20;99.90
19665;DHT22;9980;51.020;7.772;2024-01-11T11:31:03;1.30;99.90
19665;DHT22;9980;51.020;7.772;2024-01-11T11:33:30;1.50;99.90
19665;DHT22;9980;51.020;7.772;2024-01-11T11:35:59;1.60;99.90
19665;DHT22;9980;51.020;7.772;2024-01-11T11:38:27;1.70;99.90
19665;DHT22;9980;51.020;7.772;2024-01-11T11:41:00;1.90;99.90
19665;DHT22;9980;51.020;7.772;2024-01-11T11:43:28;2.00;99.90
19665;DHT22;9980;51.020;7.772;2024-01-11T11:45:57;2.10;99.90
19665;DHT22;9980;51.020;7.772;2024-01-11T11:51:10;2.30;99.90
19665;DHT22;9980;51.020;7.772;2024-01-11T11:53:42;2.50;99.90
19665;DHT22;9980;51.020;7.772;2024-01-11T11:56:13;2.60;99.90
19665;DHT22;9980;51.020;7.772;2024-01-11T11:58:45;2.70;99.90
19665;DHT22;9980;51.020;7.772;2024-01-11T12:01:14;2.80;99.90
19665;DHT22;9980;51.020;7.772;2024-01-11T12:03:45;2.90;99.90
19665;DHT22;9980;51.020;7.772;2024-01-11T12:06:20;3.10;99.90
19665;DHT22;9980;51.020;7.772;2024-01-11T12:08:52;3.20;99.90
19665;DHT22;9980;51.020;7.772;2024-01-11T12:11:24;3.30;99.90
19665;DHT22;9980;51.020;7.772;2024-01-11T12:13:52;3.40;99.90
19665;DHT22;9980;51.020;7.772;2024-01-11T12:16:21;3.50;99.90
19665;DHT22;9980;51.020;7.772;2024-01-11T12:18:49;3.60;99.90
19665;DHT22;9980;51.020;7.772;2024-01-11T12:21:17;3.80;99.90
19665;DHT22;9980;51.020;7.772;2024-01-11T12:23:44;3.80;99.90
19665;DHT22;9980;51.020;7.772;2024-01-11T12:26:11;4.00;99.90
19665;DHT22;9980;51.020;7.772;2024-01-11T12:28:41;4.10;99.90
19665;DHT22;9980;51.020;7.772;2024-01-11T12:31:11;4.20;99.90
19665;DHT22;9980;51.020;7.772;2024-01-11T12:33:39;4.30;99.90
19665;DHT22;9980;51.020;7.772;2024-01-11T12:36:08;4.40;99.90
19665;DHT22;9980;51.020;7.772;2024-01-11T12:38:35;4.40;99.90
19665;DHT22;9980;51.020;7.772;2024-01-11T12:41:04;4.50;99.90
19665;DHT22;9980;51.020;7.772;2024-01-11T12:43:33;4.60;99.90
19665;DHT22;9980;51.020;7.772;2024-01-11T12:46:01;4.70;99.80
19665;DHT22;9980;51.020;7.772;2024-01-11T12:48:29;4.70;99.90
19665;DHT22;9980;51.020;7.772;2024-01-11T12:50:57;4.80;99.50
19665;DHT22;9980;51.020;7.772;2024-01-11T12:53:40;4.90;99.50
19665;DHT22;9980;51.020;7.772;2024-01-11T12:56:08;5.00;99.50
19665;DHT22;9980;51.020;7.772;2024-01-11T12:58:38;5.00;99.50
19665;DHT22;9980;51.020;7.772;2024-01-11T13:01:06;5.10;99.00
19665;DHT22;9980;51.020;7.772;2024-01-11T13:03:37;5.10;98.50
19665;DHT22;9980;51.020;7.772;2024-01-11T13:06:05;5.20;97.80
19665;DHT22;9980;51.020;7.772;2024-01-11T13:08:33;5.20;97.20
19665;DHT22;9980;51.020;7.772;2024-01-11T13:11:04;5.30;97.00
19665;DHT22;9980;51.020;7.772;2024-01-11T13:13:34;5.40;96.70
19665;DHT22;9980;51.020;7.772;2024-01-11T13:16:02;5.40;96.80
19665;DHT22;9980;51.020;7.772;2024-01-11T13:18:33;5.50;96.30
19665;DHT22;9980;51.020;7.772;2024-01-11T13:21:00;5.60;95.80
19665;DHT22;9980;51.020;7.772;2024-01-11T13:23:27;5.70;95.80
19665;DHT22;9980;51.020;7.772;2024-01-11T13:25:54;5.70;95.40
19665;DHT22;9980;51.020;7.772;2024-01-11T13:28:21;5.80;95.30
19665;DHT22;9980;51.020;7.772;2024-01-11T13:30:48;5.80;94.70
19665;DHT22;9980;51.020;7.772;2024-01-11T13:33:16;5.90;94.70
19665;DHT22;9980;51.020;7.772;2024-01-11T13:35:45;6.00;94.70
19665;DHT22;9980;51.020;7.772;2024-01-11T13:38:13;6.00;94.40
19665;DHT22;9980;51.020;7.772;2024-01-11T13:40:40;6.10;93.80
19665;DHT22;9980;51.020;7.772;2024-01-11T13:43:08;6.10;92.90
19665;DHT22;9980;51.020;7.772;2024-01-11T13:45:36;6.20;92.40
19665;DHT22;9980;51.020;7.772;2024-01-11T13:48:04;6.20;91.90
19665;DHT22;9980;51.020;7.772;2024-01-11T13:50:33;6.20;91.10
19665;DHT22;9980;51.020;7.772;2024-01-11T13:53:01;6.30;91.20
19665;DHT22;9980;51.020;7.772;2024-01-11T13:55:29;6.30;90.60
19665;DHT22;9980;51.020;7.772;2024-01-11T13:58:04;6.30;90.60
19665;DHT22;9980;51.020;7.772;2024-01-11T14:00:31;6.30;90.20
19665;DHT22;9980;51.020;7.772;2024-01-11T14:02:59;6.30;90.60
19665;DHT22;9980;51.020;7.772;2024-01-11T14:05:26;6.40;90.60
19665;DHT22;9980;51.020;7.772;2024-01-11T14:07:53;6.40;89.40
19665;DHT22;9980;51.020;7.772;2024-01-11T14:10:25;6.40;89.90
19665;DHT22;9980;51.020;7.772;2024-01-11T14:12:54;6.40;90.20
19665;DHT22;9980;51.020;7.772;2024-01-11T14:15:21;6.40;90.10
19665;DHT22;9980;51.020;7.772;2024-01-11T14:17:48;6.40;90.60
19665;DHT22;9980;51.020;7.772;2024-01-11T14:20:16;6.50;91.00
19665;DHT22;9980;51.020;7.772;2024-01-11T14:22:45;6.40;90.30
19665;DHT22;9980;51.020;7.772;2024-01-11T14:25:18;6.40;89.90
19665;DHT22;9980;51.020;7.772;2024-01-11T14:27:49;6.40;89.00
19665;DHT22;9980;51.020;7.772;2024-01-11T14:30:17;6.40;88.70
19665;DHT22;9980;51.020;7.772;2024-01-11T14:32:44;6.30;87.80
19665;DHT22;9980;51.020;7.772;2024-01-11T14:35:12;6.30;85.30
19665;DHT22;9980;51.020;7.772;2024-01-11T14:37:42;6.20;85.70
19665;DHT22;9980;51.020;7.772;2024-01-11T14:40:11;6.20;85.50
19665;DHT22;9980;51.020;7.772;2024-01-11T14:42:39;6.10;84.70
19665;DHT22;9980;51.020;7.772;2024-01-11T14:45:08;6.10;84.40
19665;DHT22;9980;51.020;7.772;2024-01-11T14:47:35;6.10;84.80
19665;DHT22;9980;51.020;7.772;2024-01-11T14:50:03;6.00;84.10
19665;DHT22;9980;51.020;7.772;2024-01-11T14:52:31;6.00;83.70
19665;DHT22;9980;51.020;7.772;2024-01-11T14:54:59;5.90;83.30
19665;DHT22;9980;51.020;7.772;2024-01-11T14:57:26;5.90;82.40
19665;DHT22;9980;51.020;7.772;2024-01-11T14:59:53;5.80;82.70
19665;DHT22;9980;51.020;7.772;2024-01-11T15:02:21;5.80;82.50
19665;DHT22;9980;51.020;7.772;2024-01-11T15:04:48;5.70;82.60
19665;DHT22;9980;51.020;7.772;2024-01-11T15:07:16;5.70;82.70
19665;DHT22;9980;51.020;7.772;2024-01-11T15:09:43;5.70;81.80
19665;DHT22;9980;51.020;7.772;2024-01-11T15:12:09;5.60;82.10
19665;DHT22;9980;51.020;7.772;2024-01-11T15:14:36;5.50;82.50
19665;DHT22;9980;51.020;7.772;2024-01-11T15:17:03;5.50;84.20
19665;DHT22;9980;51.020;7.772;2024-01-11T15:19:31;5.50;85.70
19665;DHT22;9980;51.020;7.772;2024-01-11T15:21:58;5.40;86.90
19665;DHT22;9980;51.020;7.772;2024-01-11T15:24:26;5.30;87.40
19665;DHT22;9980;51.020;7.772;2024-01-11T15:26:54;5.30;88.10
19665;DHT22;9980;51.020;7.772;2024-01-11T15:29:21;5.20;88.50
19665;DHT22;9980;51.020;7.772;2024-01-11T15:31:49;5.00;88.90
19665;DHT22;9980;51.020;7.772;2024-01-11T15:34:16;5.00;89.70
19665;DHT22;9980;51.020;7.772;2024-01-11T15:36:44;4.90;89.90
19665;DHT22;9980;51.020;7.772;2024-01-11T15:39:11;4.80;90.00
19665;DHT22;9980;51.020;7.772;2024-01-11T15:41:54;4.70;90.10
19665;DHT22;9980;51.020;7.772;2024-01-11T15:44:23;4.60;90.30
19665;DHT22;9980;51.020;7.772;2024-01-11T15:46:51;4.50;90.40
19665;DHT22;9980;51.020;7.772;2024-01-11T15:49:18;4.50;90.40
19665;DHT22;9980;51.020;7.772;2024-01-11T15:51:45;4.40;90.40
19665;DHT22;9980;51.020;7.772;2024-01-11T15:54:12;4.30;90.40
19665;DHT22;9980;51.020;7.772;2024-01-11T15:56:39;4.20;90.60
19665;DHT22;9980;51.020;7.772;2024-01-11T15:59:06;4.10;90.40
19665;DHT22;9980;51.020;7.772;2024-01-11T16:01:34;4.00;90.40